Time;durP1;ratioP1;P1;durP2;ratioP2;P2;SDS_P1;SDS_P2;PMS_P1;PMS_P2;Temp;Humidity;BMP_temperature;BMP_pressure;BME280_temperature;BME280_humidity;BME280_pressure;Samples;Min_cycle;Max_cycle;Signal;HPM_P1;HPM_P2
2024/01/06 00:00:29;;;;;;;2.70;1.60;;;;;;;5.67;99.25;100288.81;10257177;29;20093;-68
2024/01/06 00:05:29;;;;;;;3.45;1.90;;;;;;;5.73;100.00;100304.06;10257785;29;20105;-68
2024/01/06 00:10:30;;;;;;;3.92;2.08;;;;;;;5.41;100.00;100268.25;10257114;29;20129;-68
2024/01/06 00:15:31;;;;;;;5.15;2.42;;;;;;;5.65;100.00;100304.78;10257290;29;20043;-68
2024/01/06 00:20:32;;;;;;;4.43;2.40;;;;;;;5.71;100.00;100306.00;10256916;28;20035;-68
2024/01/06 00:25:32;;;;;;;4.70;2.10;;;;;;;5.81;100.00;100316.56;10257185;29;20094;-68
2024/01/06 00:30:33;;;;;;;5.10;2.20;;;;;;;5.80;100.00;100326.25;10256539;29;20046;-68
2024/01/06 00:35:34;;;;;;;3.42;1.92;;;;;;;5.87;100.00;100337.13;10255630;28;20043;-68
2024/01/06 00:40:35;;;;;;;3.92;2.17;;;;;;;5.75;100.00;100317.97;10255496;29;20082;-68
2024/01/06 00:45:36;;;;;;;5.07;2.40;;;;;;;5.82;100.00;100349.88;10255376;29;20047;-68
2024/01/06 00:50:36;;;;;;;4.10;2.47;;;;;;;5.51;100.00;100328.88;10256434;29;20051;-71
2024/01/06 00:55:37;;;;;;;6.45;2.42;;;;;;;5.25;100.00;100334.63;10254144;29;20039;-67
2024/01/06 01:00:38;;;;;;;10.85;3.08;;;;;;;5.20;100.00;100336.81;10254005;29;20107;-68
2024/01/06 01:05:39;;;;;;;15.35;3.35;;;;;;;5.19;100.00;100352.78;10254686;28;20133;-67
2024/01/06 01:10:39;;;;;;;4.80;2.92;;;;;;;4.86;100.00;100301.22;10283240;28;20114;-69
2024/01/06 01:15:40;;;;;;;4.53;3.00;;;;;;;4.75;100.00;100304.78;10266623;28;20108;-68
2024/01/06 01:20:44;;;;;;;5.82;3.17;;;;;;;4.71;100.00;100350.75;10294226;28;20053;-69
2024/01/06 01:25:45;;;;;;;4.03;2.40;;;;;;;4.49;100.00;100344.66;10294002;28;20130;-69
2024/01/06 01:30:46;;;;;;;3.88;2.60;;;;;;;4.32;100.00;100351.31;10292798;28;20153;-69
2024/01/06 01:35:46;;;;;;;7.63;3.00;;;;;;;4.27;100.00;100353.50;10294533;28;20042;-68
2024/01/06 01:40:47;;;;;;;5.82;3.13;;;;;;;3.89;100.00;100293.59;10293503;28;20497;-69
2024/01/06 01:45:53;;;;;;;5.85;3.03;;;;;;;4.21;100.00;100368.94;10294061;28;20054;-68
2024/01/06 01:50:54;;;;;;;6.68;2.85;;;;;;;4.02;100.00;100354.69;10294180;28;20407;-68
2024/01/06 01:55:55;;;;;;;4.65;2.78;;;;;;;3.95;100.00;100342.16;10292088;28;20570;-69
2024/01/06 02:00:57;;;;;;;4.82;2.92;;;;;;;3.83;100.00;100336.13;10293571;28;20047;-68
2024/01/06 02:05:58;;;;;;;12.50;3.45;;;;;;;4.10;100.00;100372.47;10291303;28;20537;-68
2024/01/06 02:10:59;;;;;;;6.72;3.25;;;;;;;4.12;100.00;100360.84;10292745;28;20046;-69
2024/01/06 02:15:59;;;;;;;6.63;3.17;;;;;;;4.25;100.00;100358.06;10292229;28;20039;-69
2024/01/06 02:21:02;;;;;;;6.90;3.22;;;;;;;4.19;100.00;100310.38;10293728;28;20045;-68
2024/01/06 02:26:03;;;;;;;7.40;3.38;;;;;;;4.20;100.00;100288.41;10292374;28;20047;-69
2024/01/06 02:31:04;;;;;;;7.85;4.00;;;;;;;3.86;100.00;100260.50;10292858;28;20065;-69
2024/01/06 02:36:05;;;;;;;4.75;3.30;;;;;;;4.46;100.00;100379.13;10292684;28;20097;-69
2024/01/06 02:41:06;;;;;;;7.93;3.70;;;;;;;4.12;100.00;100352.97;10293042;28;20146;-70
2024/01/06 02:46:07;;;;;;;9.95;4.00;;;;;;;4.08;100.00;100372.59;10291226;28;20491;-68
2024/01/06 02:51:08;;;;;;;5.95;3.85;;;;;;;3.72;100.00;100338.78;10291173;28;20069;-69
2024/01/06 02:56:12;;;;;;;7.80;3.78;;;;;;;3.82;100.00;100373.88;10291316;28;20034;-69
2024/01/06 03:01:13;;;;;;;6.65;4.25;;;;;;;3.75;100.00;100398.97;10291144;28;20035;-69
2024/01/06 03:06:14;;;;;;;6.90;3.95;;;;;;;3.70;100.00;100420.34;10289816;28;20133;-69
2024/01/06 03:11:14;;;;;;;6.60;3.88;;;;;;;3.38;100.00;100426.38;10283814;28;20488;-69
2024/01/06 03:16:15;;;;;;;7.53;3.83;;;;;;;3.32;100.00;100410.22;10283264;28;20146;-69
2024/01/06 03:21:20;;;;;;;9.07;4.30;;;;;;;3.16;100.00;100379.09;10251354;29;20035;-69
2024/01/06 03:26:21;;;;;;;7.03;4.25;;;;;;;3.64;100.00;100437.44;10266441;28;20499;-69
2024/01/06 03:31:22;;;;;;;8.63;3.83;;;;;;;3.69;100.00;100449.38;10251511;28;20043;-69
2024/01/06 03:36:23;;;;;;;10.65;4.15;;;;;;;3.62;100.00;100459.53;10250576;29;20038;-69
2024/01/06 03:41:23;;;;;;;7.47;4.05;;;;;;;3.71;100.00;100471.09;10250966;29;20063;-69
2024/01/06 03:46:25;;;;;;;17.77;4.28;;;;;;;3.67;100.00;100452.13;10251734;28;20138;-73
2024/01/06 03:51:25;;;;;;;12.30;4.65;;;;;;;3.91;100.00;100486.13;10286546;28;20522;-69
2024/01/06 03:56:26;;;;;;;11.98;3.85;;;;;;;3.45;100.00;100434.59;10288832;28;20053;-68
2024/01/06 04:01:28;;;;;;;11.90;3.67;;;;;;;3.65;100.00;100503.97;10290482;28;20330;-69
2024/01/06 04:06:29;;;;;;;6.47;3.45;;;;;;;3.06;100.00;100420.16;10290521;28;20062;-69
2024/01/06 04:11:31;;;;;;;18.77;3.47;;;;;;;3.24;100.00;100502.72;10297260;28;20491;-68
2024/01/06 04:16:32;;;;;;;26.60;4.28;;;;;;;2.94;100.00;100496.22;10292483;28;20034;-68
2024/01/06 04:21:33;;;;;;;4.35;2.63;;;;;;;3.04;100.00;100511.28;10296865;28;20098;-68
2024/01/06 04:26:34;;;;;;;10.80;3.08;;;;;;;2.98;100.00;100508.16;10295851;28;20047;-69
2024/01/06 04:31:34;;;;;;;5.03;2.78;;;;;;;3.01;100.00;100512.34;10297004;28;20046;-69
2024/01/06 04:36:35;;;;;;;5.03;2.60;;;;;;;3.10;100.00;100524.75;10295489;28;20043;-68
2024/01/06 04:41:36;;;;;;;5.95;2.72;;;;;;;3.26;100.00;100515.72;10294714;28;20510;-69
2024/01/06 04:46:37;;;;;;;4.28;2.40;;;;;;;3.41;100.00;100522.44;10296244;28;20561;-68
2024/01/06 04:51:38;;;;;;;2.95;1.63;;;;;;;3.47;100.00;100529.88;10296459;28;20042;-70
2024/01/06 04:56:39;;;;;;;2.85;1.70;;;;;;;3.53;100.00;100541.66;10295452;28;20510;-69
2024/01/06 05:01:40;;;;;;;3.30;2.00;;;;;;;3.58;100.00;100560.53;10295683;28;20035;-68
2024/01/06 05:06:40;;;;;;;4.35;1.77;;;;;;;3.70;100.00;100546.47;10295930;28;20038;-68
2024/01/06 05:11:44;;;;;;;5.57;1.85;;;;;;;3.91;100.00;100562.34;10295853;28;20030;-69
2024/01/06 05:16:44;;;;;;;7.18;1.55;;;;;;;4.30;100.00;100587.28;10294968;28;20049;-68
2024/01/06 05:21:49;;;;;;;4.95;1.48;;;;;;;4.71;100.00;100606.00;10282943;28;20500;-68
2024/01/06 05:26:50;;;;;;;2.58;1.33;;;;;;;5.04;100.00;100616.41;10271794;28;20043;-69
2024/01/06 05:31:51;;;;;;;2.60;1.30;;;;;;;5.33;100.00;100633.44;10294201;28;20046;-69
2024/01/06 05:36:51;;;;;;;6.47;1.30;;;;;;;5.46;100.00;100636.72;10293147;28;20121;-68
2024/01/06 05:41:53;;;;;;;2.45;1.25;;;;;;;5.64;100.00;100660.69;10292071;28;20059;-70
2024/01/06 05:46:54;;;;;;;4.93;1.33;;;;;;;5.64;100.00;100652.78;10282169;28;20035;-69
2024/01/06 05:51:55;;;;;;;2.50;1.60;;;;;;;5.67;100.00;100647.25;10271000;28;20047;-69
2024/01/06 05:56:56;;;;;;;5.43;1.98;;;;;;;5.46;100.00;100599.81;10279275;28;20105;-71
2024/01/06 06:01:57;;;;;;;1.98;0.93;;;;;;;6.07;97.99;100663.22;10278210;28;20046;-66
2024/01/06 06:06:58;;;;;;;2.95;1.17;;;;;;;6.22;94.97;100683.94;10284323;28;20050;-68
2024/01/06 06:11:59;;;;;;;1.77;1.00;;;;;;;6.31;92.46;100686.66;10275917;28;20094;-68
2024/01/06 06:17:00;;;;;;;2.08;1.10;;;;;;;6.31;91.98;100681.38;10276861;28;20045;-68
2024/01/06 06:22:00;;;;;;;4.35;1.10;;;;;;;6.36;91.69;100700.25;10277170;28;20458;-69
2024/01/06 06:27:01;;;;;;;1.50;0.80;;;;;;;6.13;90.36;100659.19;10268853;28;20046;-68
2024/01/06 06:32:02;;;;;;;1.80;1.17;;;;;;;6.16;90.18;100670.34;10269049;28;20075;-71
2024/01/06 06:37:03;;;;;;;2.75;1.30;;;;;;;6.53;89.07;100721.75;10268929;28;20079;-73
2024/01/06 06:42:04;;;;;;;2.65;1.30;;;;;;;6.55;87.73;100740.91;10266978;28;20420;-71
2024/01/06 06:47:05;;;;;;;2.20;1.23;;;;;;;6.56;87.11;100748.72;10271310;28;20050;-70
2024/01/06 06:52:07;;;;;;;2.42;1.10;;;;;;;6.44;87.10;100726.00;10268645;28;20204;-70
2024/01/06 06:57:07;;;;;;;2.65;1.05;;;;;;;6.63;85.41;100763.03;10270858;28;20090;-70
2024/01/06 07:02:09;;;;;;;3.08;1.38;;;;;;;6.62;85.17;100768.47;10259903;28;20518;-72
2024/01/06 07:07:10;;;;;;;3.35;1.17;;;;;;;6.74;84.96;100780.59;10276506;28;20047;-71
2024/01/06 07:12:11;;;;;;;2.42;1.25;;;;;;;6.73;83.25;100776.31;10291208;28;20137;-71
2024/01/06 07:17:11;;;;;;;3.00;1.25;;;;;;;6.90;82.20;100797.75;10281652;28;20042;-70
2024/01/06 07:22:12;;;;;;;3.35;1.10;;;;;;;6.77;81.16;100777.69;10268594;28;20392;-72
2024/01/06 07:27:13;;;;;;;2.17;0.80;;;;;;;6.48;81.21;100729.22;10270917;28;20185;-70
2024/01/06 07:32:15;;;;;;;2.78;1.05;;;;;;;7.02;79.47;100810.72;10273157;28;20045;-69
2024/01/06 07:37:16;;;;;;;1.45;0.80;;;;;;;6.93;79.43;100758.69;10269814;28;20043;-70
2024/01/06 07:42:17;;;;;;;1.85;0.93;;;;;;;7.34;78.61;100800.97;10266088;28;20055;-71
2024/01/06 07:47:17;;;;;;;2.13;0.90;;;;;;;7.36;77.79;100797.22;10273073;28;20135;-70
2024/01/06 07:52:18;;;;;;;2.15;1.00;;;;;;;7.31;76.81;100763.25;10279959;28;20039;-70
2024/01/06 07:57:19;;;;;;;4.18;0.90;;;;;;;7.21;76.92;100757.13;10297194;28;20049;-68
2024/01/06 08:02:20;;;;;;;3.35;1.30;;;;;;;7.21;76.10;100736.00;10296460;28;20043;-68
2024/01/06 08:07:21;;;;;;;2.00;0.95;;;;;;;7.76;75.10;100797.13;10276203;28;20047;-70
2024/01/06 08:12:22;;;;;;;2.20;1.02;;;;;;;8.10;73.43;100791.38;10271022;28;20043;-69
2024/01/06 08:17:22;;;;;;;1.98;1.00;;;;;;;8.21;72.13;100785.94;10272729;28;20042;-70
2024/01/06 08:22:23;;;;;;;1.70;1.00;;;;;;;8.21;72.00;100788.59;10285513;28;20472;-70
2024/01/06 08:27:24;;;;;;;2.65;1.00;;;;;;;8.24;71.48;100793.59;10271518;28;20043;-71
2024/01/06 08:32:25;;;;;;;4.00;1.67;;;;;;;8.28;70.44;100793.31;10283092;28;20050;-69
2024/01/06 08:37:26;;;;;;;2.50;1.10;;;;;;;8.22;71.53;100786.78;10289436;28;20415;-70
2024/01/06 08:42:27;;;;;;;2.67;1.33;;;;;;;8.18;71.61;100746.53;10288202;28;20082;-69
2024/01/06 08:47:28;;;;;;;4.38;1.08;;;;;;;8.33;71.36;100723.09;10291088;28;20499;-70
2024/01/06 08:52:29;;;;;;;3.30;1.35;;;;;;;8.51;70.95;100754.97;10291243;28;20380;-69
2024/01/06 08:57:29;;;;;;;3.05;1.17;;;;;;;8.72;71.68;100768.00;10273737;28;20399;-70
2024/01/06 09:02:30;;;;;;;2.28;0.93;;;;;;;8.81;71.27;100774.25;10277101;28;20057;-71
2024/01/06 09:07:31;;;;;;;5.15;3.30;;;;;;;8.80;71.17;100775.25;10293963;28;20071;-69
2024/01/06 09:12:32;;;;;;;2.75;1.10;;;;;;;8.83;71.08;100767.81;10294552;28;20050;-67
2024/01/06 09:17:34;;;;;;;2.40;1.17;;;;;;;8.82;71.40;100749.41;10294231;28;20053;-70
2024/01/06 09:22:35;;;;;;;2.83;1.20;;;;;;;8.54;71.37;100685.00;10293478;28;20133;-70
2024/01/06 09:27:36;;;;;;;2.95;1.00;;;;;;;9.13;69.98;100773.81;10292458;28;20133;-71
2024/01/06 09:32:36;;;;;;;5.82;1.30;;;;;;;9.08;70.64;100779.53;10279992;28;20490;-71
2024/01/06 09:37:37;;;;;;;2.65;1.15;;;;;;;9.06;70.17;100756.81;10289188;28;20050;-68
2024/01/06 09:42:38;;;;;;;2.08;0.93;;;;;;;9.23;70.30;100763.16;10293930;28;20088;-69
2024/01/06 09:47:41;;;;;;;2.35;1.25;;;;;;;8.96;70.17;100697.75;10290846;28;20074;-69
2024/01/06 09:52:43;;;;;;;2.33;1.00;;;;;;;9.27;70.23;100743.28;10288442;28;20459;-70
2024/01/06 09:57:45;;;;;;;2.10;1.00;;;;;;;9.28;70.73;100748.47;10281085;28;20451;-69
2024/01/06 10:02:48;;;;;;;3.70;1.17;;;;;;;9.42;70.25;100756.88;10291958;28;20106;-70
2024/01/06 10:07:49;;;;;;;3.10;1.20;;;;;;;9.43;70.40;100753.25;10292575;28;20046;-70
2024/01/06 10:12:54;;;;;;;6.80;1.40;;;;;;;9.30;70.75;100703.22;10292974;28;20047;-70
2024/01/06 10:17:55;;;;;;;5.63;1.58;;;;;;;9.59;70.52;100753.41;10292240;28;20435;-70
2024/01/06 10:23:05;;;;;;;2.80;1.20;;;;;;;8.95;69.71;100667.78;10292060;28;20051;-69
2024/01/06 10:28:06;;;;;;;2.22;1.00;;;;;;;9.41;70.71;100761.34;10291932;28;20101;-69
2024/01/06 10:33:10;;;;;;;3.25;1.15;;;;;;;9.33;70.51;100775.38;10292262;28;20047;-70
2024/01/06 10:38:11;;;;;;;;;;;;;;;9.57;71.01;100798.66;10292578;28;20050;-70
2024/01/06 10:43:13;;;;;;;5.75;1.50;;;;;;;9.53;71.06;100802.56;10290155;28;19922;-71
2024/01/06 10:48:14;;;;;;;3.20;1.10;;;;;;;9.54;71.29;100814.88;10291436;28;20054;-69
2024/01/06 10:53:17;;;;;;;3.78;1.45;;;;;;;9.41;71.44;100809.09;10291130;28;20423;-70
2024/01/06 10:58:18;;;;;;;3.72;1.92;;;;;;;9.27;71.95;100822.84;10291173;28;20042;-70
2024/01/06 11:03:21;;;;;;;2.92;1.20;;;;;;;9.12;72.18;100814.53;10291576;28;20101;-70
2024/01/06 11:08:23;;;;;;;5.32;2.20;;;;;;;8.73;73.18;100793.50;10291934;28;20467;-69
2024/01/06 11:13:25;;;;;;;5.13;2.63;;;;;;;8.71;73.77;100813.19;10290148;28;20045;-71
2024/01/06 11:18:40;;;;;;;4.55;1.48;;;;;;;8.54;74.23;100793.56;10294867;28;20043;-70
2024/01/06 11:23:41;;;;;;;2.75;1.23;;;;;;;8.57;74.67;100809.19;10299298;28;20043;-70
2024/01/06 11:28:51;;;;;;;5.15;1.77;;;;;;;8.41;74.76;100770.06;10298975;28;20045;-70
2024/01/06 11:33:54;;;;;;;3.88;1.58;;;;;;;8.67;74.80;100794.06;10299574;28;20053;-70
2024/01/06 11:38:55;;;;;;;3.33;1.60;;;;;;;8.95;74.38;100823.28;10297378;28;20424;-70
2024/01/06 11:43:56;;;;;;;7.03;2.00;;;;;;;9.01;74.48;100825.34;10297847;28;20073;-67
2024/01/06 11:48:57;;;;;;;4.55;2.05;;;;;;;8.64;74.73;100763.41;10297806;28;20042;-67
2024/01/06 11:53:58;;;;;;;3.40;1.80;;;;;;;9.05;74.85;100840.78;10298362;28;20052;-67
2024/01/06 11:59:00;;;;;;;9.13;5.72;;;;;;;9.19;74.50;100846.63;10297736;28;20043;-70
2024/01/06 12:04:02;;;;;;;8.02;4.60;;;;;;;9.08;74.23;100827.25;10298017;28;20064;-69
2024/01/06 12:09:07;;;;;;;4.90;2.50;;;;;;;8.65;74.16;100754.50;10297015;28;20047;-70
2024/01/06 12:14:08;;;;;;;11.82;6.70;;;;;;;8.99;73.89;100820.19;10296464;28;20525;-69
2024/01/06 12:19:09;;;;;;;38.10;24.55;;;;;;;9.22;74.27;100859.56;10294787;28;20138;-70
2024/01/06 12:24:17;;;;;;;5.78;2.90;;;;;;;9.24;73.64;100870.84;10290264;28;20633;-70
2024/01/06 12:29:19;;;;;;;3.03;1.60;;;;;;;9.14;73.73;100858.47;10289313;28;20182;-70
2024/01/06 12:34:21;;;;;;;5.70;1.75;;;;;;;9.10;73.59;100870.34;10291428;28;20043;-70
2024/01/06 12:39:23;;;;;;;3.92;1.60;;;;;;;9.05;73.87;100880.53;10291577;28;20039;-70
2024/01/06 12:44:24;;;;;;;3.50;1.25;;;;;;;8.95;74.13;100893.00;10282359;28;20066;-72
2024/01/06 12:49:24;;;;;;;5.00;1.20;;;;;;;8.77;74.33;100873.53;10282756;28;20047;-70
2024/01/06 12:54:25;;;;;;;3.13;1.80;;;;;;;8.67;75.22;100878.84;10288002;28;20050;-68
2024/01/06 12:59:26;;;;;;;26.23;13.52;;;;;;;8.57;75.30;100868.25;10279938;28;20047;-70
2024/01/06 13:04:27;;;;;;;35.67;15.20;;;;;;;8.50;76.13;100879.59;10278550;28;20047;-69
2024/01/06 13:09:28;;;;;;;21.02;9.38;;;;;;;8.06;76.41;100837.63;10288573;28;20043;-70
2024/01/06 13:14:32;;;;;;;21.60;10.45;;;;;;;8.18;76.89;100893.91;10290787;28;20043;-69
2024/01/06 13:19:34;;;;;;;10.43;5.35;;;;;;;8.01;77.28;100904.19;10286044;28;20042;-73
2024/01/06 13:24:35;;;;;;;19.55;12.38;;;;;;;7.83;77.82;100899.72;10284877;28;20732;-70
2024/01/06 13:29:36;;;;;;;5.97;3.45;;;;;;;7.65;78.54;100900.38;10291814;28;20042;-70
2024/01/06 13:34:38;;;;;;;10.77;6.53;;;;;;;7.51;79.00;100898.94;10292431;28;20086;-70
2024/01/06 13:39:38;;;;;;;22.27;17.17;;;;;;;7.11;79.60;100856.66;10289556;28;20137;-70
2024/01/06 13:44:39;;;;;;;14.55;4.75;;;;;;;7.28;79.92;100918.63;10286825;28;20039;-69
2024/01/06 13:49:40;;;;;;;5.97;3.35;;;;;;;7.15;80.63;100932.06;10291238;28;20133;-69
2024/01/06 13:54:41;;;;;;;14.65;8.88;;;;;;;6.97;81.62;100930.94;10292682;28;20145;-69
2024/01/06 13:59:42;;;;;;;9.23;2.47;;;;;;;6.83;81.60;100938.25;10289870;28;20125;-69
2024/01/06 14:04:43;;;;;;;14.32;2.42;;;;;;;6.46;82.55;100953.69;10275374;28;20054;-70
2024/01/06 14:09:44;;;;;;;4.82;2.20;;;;;;;6.26;83.62;100983.50;10274403;28;20403;-69
2024/01/06 14:14:46;;;;;;;6.05;2.33;;;;;;;6.14;83.86;100977.41;10273679;28;20125;-70
2024/01/06 14:19:46;;;;;;;32.50;23.98;;;;;;;5.96;84.08;100948.09;10270101;28;20201;-69
2024/01/06 14:24:47;;;;;;;35.63;6.82;;;;;;;5.72;84.26;100898.97;10272915;28;20046;-69
2024/01/06 14:29:48;;;;;;;22.95;5.40;;;;;;;5.84;85.21;100952.50;10268139;28;20046;-71
2024/01/06 14:34:50;;;;;;;18.83;3.90;;;;;;;5.68;85.58;100944.13;10270590;28;20062;-70
2024/01/06 14:39:52;;;;;;;6.85;3.50;;;;;;;5.55;86.27;100946.91;10275787;28;20391;-67
2024/01/06 14:44:54;;;;;;;10.20;3.70;;;;;;;5.53;86.66;100976.97;10269103;28;20043;-69
2024/01/06 14:49:54;;;;;;;10.40;4.30;;;;;;;5.20;86.78;100939.13;10270540;28;20047;-69
2024/01/06 14:54:55;;;;;;;9.50;3.92;;;;;;;5.25;86.83;100973.84;10287732;28;20047;-70
2024/01/06 14:59:56;;;;;;;7.10;3.70;;;;;;;4.93;87.37;100961.34;10289989;28;20059;-69
2024/01/06 15:04:57;;;;;;;19.10;8.25;;;;;;;4.96;87.85;100997.97;10289979;28;20099;-67
2024/01/06 15:10:01;;;;;;;10.00;5.10;;;;;;;4.79;88.72;101003.69;10289455;28;20046;-68
2024/01/06 15:15:02;;;;;;;11.48;4.65;;;;;;;4.38;88.52;100960.22;10291214;28;20165;-68
2024/01/06 15:20:04;;;;;;;15.27;5.15;;;;;;;4.04;89.32;100954.78;10290204;28;20569;-68
2024/01/06 15:25:07;;;;;;;13.07;4.53;;;;;;;4.06;89.80;100987.03;10282170;28;20048;-73
2024/01/06 15:30:08;;;;;;;456.85;182.70;;;;;;;4.11;90.19;100998.09;10279978;28;20054;-70
2024/01/06 15:35:09;;;;;;;97.55;43.28;;;;;;;4.02;90.78;101005.78;10278830;28;20051;-72
2024/01/06 15:40:10;;;;;;;23.45;12.15;;;;;;;3.71;90.71;101004.47;10290036;28;20058;-71
2024/01/06 15:45:12;;;;;;;22.60;7.90;;;;;;;3.39;91.17;101010.19;10286974;28;20050;-76
2024/01/06 15:50:12;;;;;;;17.23;8.02;;;;;;;3.10;91.58;101010.38;10261555;28;20388;-71
2024/01/06 15:55:13;;;;;;;29.35;8.95;;;;;;;3.12;91.76;101026.88;10250130;29;20043;-72
2024/01/06 16:00:16;;;;;;;17.10;8.35;;;;;;;2.94;92.03;101021.06;10250350;28;20129;-76
2024/01/06 16:05:17;;;;;;;28.08;8.52;;;;;;;2.92;92.12;101012.47;10255340;28;20043;-72
2024/01/06 16:10:21;;;;;;;42.40;16.02;;;;;;;2.83;92.16;101004.38;10257388;29;20043;-73
2024/01/06 16:15:23;;;;;;;33.45;13.25;;;;;;;2.91;92.91;101013.41;10256937;28;20039;-70
2024/01/06 16:20:24;;;;;;;29.75;11.93;;;;;;;2.50;92.90;100937.44;10255437;28;20499;-71
2024/01/06 16:25:25;;;;;;;57.88;34.10;;;;;;;2.91;93.56;101026.53;10254887;28;20051;-70
2024/01/06 16:30:26;;;;;;;28.75;12.48;;;;;;;2.09;93.82;100932.28;10269875;28;20039;-73
2024/01/06 16:35:26;;;;;;;30.45;13.73;;;;;;;2.11;93.88;100999.41;10294726;28;20053;-74
2024/01/06 16:40:28;;;;;;;16.95;9.00;;;;;;;2.21;94.45;101060.78;10295610;28;20050;-74
2024/01/06 16:45:31;;;;;;;17.58;7.53;;;;;;;2.28;95.22;101058.63;10288020;28;20035;-75
2024/01/06 16:50:32;;;;;;;29.85;7.28;;;;;;;2.24;94.72;101062.38;10270993;28;20529;-74
2024/01/06 16:55:33;;;;;;;13.68;7.10;;;;;;;2.11;94.84;101049.19;10295707;28;20047;-74
2024/01/06 17:00:33;;;;;;;23.70;8.63;;;;;;;2.01;94.93;101050.72;10296217;28;20043;-74
2024/01/06 17:05:34;;;;;;;9.75;5.75;;;;;;;1.70;95.50;101034.25;10294484;28;20078;-75
2024/01/06 17:10:35;;;;;;;22.17;6.68;;;;;;;1.60;95.51;101033.16;10295385;28;20085;-75
2024/01/06 17:15:37;;;;;;;11.98;5.80;;;;;;;1.58;95.43;101038.47;10294556;28;20573;-76
2024/01/06 17:20:39;;;;;;;16.50;6.07;;;;;;;1.24;95.62;101008.25;10295106;28;20097;-75
2024/01/06 17:25:40;;;;;;;11.38;5.28;;;;;;;1.45;95.88;101023.59;10293687;28;20046;-74
2024/01/06 17:30:41;;;;;;;13.82;5.78;;;;;;;1.35;95.70;101024.16;10295177;28;20434;-74
2024/01/06 17:35:42;;;;;;;12.85;5.20;;;;;;;1.05;95.91;100998.03;10293018;28;20042;-74
2024/01/06 17:40:43;;;;;;;10.10;4.15;;;;;;;1.19;96.63;101007.66;10293994;28;20062;-75
2024/01/06 17:45:44;;;;;;;27.92;5.03;;;;;;;1.40;96.31;101013.41;10285852;28;20578;-76
2024/01/06 17:50:45;;;;;;;10.90;5.10;;;;;;;1.28;96.82;101001.88;10263453;28;20050;-76
2024/01/06 17:55:46;;;;;;;16.52;4.70;;;;;;;1.10;96.09;101010.84;10262862;28;20046;-76
2024/01/06 18:00:47;;;;;;;8.68;4.30;;;;;;;0.88;96.09;101022.56;10268525;28;20054;-76
2024/01/06 18:05:47;;;;;;;8.05;4.13;;;;;;;0.70;96.96;100997.47;10271532;28;20054;-75
2024/01/06 18:10:48;;;;;;;37.85;6.07;;;;;;;0.80;97.06;100982.94;10291181;28;20043;-75
2024/01/06 18:15:49;;;;;;;8.90;4.35;;;;;;;0.76;97.63;100999.75;10292585;28;20085;-75
2024/01/06 18:20:50;;;;;;;10.68;4.55;;;;;;;0.59;97.07;100986.78;10293395;28;20054;-75
2024/01/06 18:25:51;;;;;;;7.10;4.05;;;;;;;0.63;97.26;100977.84;10291094;28;20052;-75
2024/01/06 18:30:53;;;;;;;8.82;4.55;;;;;;;0.82;97.32;100975.84;10291913;28;20050;-75
2024/01/06 18:35:54;;;;;;;29.95;5.82;;;;;;;0.75;97.67;100963.19;10291568;28;20047;-75
2024/01/06 18:40:58;;;;;;;19.90;4.60;;;;;;;0.51;97.94;100936.72;10291288;28;20418;-75
2024/01/06 18:45:58;;;;;;;;;;;;;;;0.86;99.17;100985.19;10292846;28;20093;-75
2024/01/06 18:50:59;;;;;;;11.10;4.30;;;;;;;0.42;96.94;100952.03;10292535;28;19964;-75
2024/01/06 18:56:01;;;;;;;13.35;4.57;;;;;;;0.63;97.86;100949.09;10290361;28;20152;-76
2024/01/06 19:01:02;;;;;;;27.98;5.60;;;;;;;0.49;97.69;100962.97;10291700;28;20050;-76
2024/01/06 19:06:03;;;;;;;12.45;4.30;;;;;;;0.35;97.96;100970.75;10291069;28;20522;-73
2024/01/06 19:11:04;;;;;;;16.67;5.07;;;;;;;0.06;98.25;100954.94;10291518;28;20042;-74
2024/01/06 19:16:06;;;;;;;11.65;5.35;;;;;;;0.06;98.78;100936.66;10290727;28;20053;-74
2024/01/06 19:21:12;;;;;;;9.60;5.00;;;;;;;0.03;99.13;100897.66;10291846;28;20085;-74
2024/01/06 19:26:13;;;;;;;15.07;5.30;;;;;;;0.37;98.84;100937.53;10291003;28;20121;-73
2024/01/06 19:31:13;;;;;;;16.63;5.53;;;;;;;0.44;99.28;100931.84;10290342;28;20053;-74
2024/01/06 19:36:16;;;;;;;13.07;5.07;;;;;;;0.14;98.71;100944.88;10291043;28;20046;-73
2024/01/06 19:41:17;;;;;;;18.55;4.63;;;;;;;0.01;99.11;100930.84;10297705;28;20055;-74
2024/01/06 19:46:17;;;;;;;14.55;4.53;;;;;;;0.06;99.18;100902.72;10296896;28;20059;-73
2024/01/06 19:51:18;;;;;;;17.50;5.30;;;;;;;0.12;100.00;100902.34;10299030;28;20387;-75
2024/01/06 19:56:19;;;;;;;8.15;4.72;;;;;;;0.08;99.72;100915.66;10293604;28;20038;-75
2024/01/06 20:01:20;;;;;;;15.90;4.53;;;;;;;-0.28;98.86;100906.34;10296042;28;20065;-70
2024/01/06 20:06:21;;;;;;;11.77;4.43;;;;;;;-0.16;100.00;100916.09;10296490;28;20043;-72
2024/01/06 20:11:21;;;;;;;11.75;4.07;;;;;;;-0.32;100.00;100836.97;10297174;28;20047;-73
2024/01/06 20:16:22;;;;;;;9.23;4.13;;;;;;;-0.18;100.00;100846.59;10296814;28;20487;-72
2024/01/06 20:21:23;;;;;;;8.20;4.18;;;;;;;-0.15;100.00;100878.63;10297755;28;20125;-72
2024/01/06 20:26:25;;;;;;;7.82;3.85;;;;;;;-0.30;100.00;100887.31;10295534;28;20050;-73
2024/01/06 20:31:26;;;;;;;7.68;3.65;;;;;;;-0.20;100.00;100862.38;10295786;28;20512;-73
2024/01/06 20:36:27;;;;;;;7.28;3.90;;;;;;;-0.11;100.00;100850.56;10297233;28;20041;-73
2024/01/06 20:41:28;;;;;;;7.32;3.85;;;;;;;0.03;100.00;100849.75;10296289;28;20062;-73
2024/01/06 20:46:29;;;;;;;9.40;3.50;;;;;;;-0.06;100.00;100838.06;10296398;28;20047;-73
2024/01/06 20:51:29;;;;;;;8.18;3.88;;;;;;;0.01;100.00;100844.66;10295334;28;20043;-73
2024/01/06 20:56:30;;;;;;;6.95;3.45;;;;;;;-0.49;100.00;100775.25;10295534;28;20042;-73
2024/01/06 21:01:31;;;;;;;8.30;4.00;;;;;;;-0.46;100.00;100812.47;10295754;28;20125;-73
2024/01/06 21:06:32;;;;;;;5.95;3.63;;;;;;;-0.36;100.00;100820.63;10295138;28;20554;-73
2024/01/06 21:11:32;;;;;;;9.23;4.30;;;;;;;-0.54;100.00;100819.91;10294833;28;20047;-74
2024/01/06 21:16:33;;;;;;;9.13;3.78;;;;;;;-0.37;100.00;100805.88;10293718;28;20039;-73
2024/01/06 21:21:34;;;;;;;10.25;3.80;;;;;;;-0.13;100.00;100802.81;10294410;28;20045;-73
2024/01/06 21:26:36;;;;;;;7.30;3.55;;;;;;;0.10;100.00;100793.66;10294981;28;20102;-73
2024/01/06 21:31:38;;;;;;;8.70;3.95;;;;;;;0.06;100.00;100745.09;10294547;28;20039;-73
2024/01/06 21:36:39;;;;;;;10.98;3.50;;;;;;;0.12;100.00;100794.38;10294142;28;20049;-73
2024/01/06 21:41:40;;;;;;;9.55;3.80;;;;;;;0.05;100.00;100790.47;10294347;28;20566;-73
2024/01/06 21:46:41;;;;;;;6.53;3.67;;;;;;;0.03;100.00;100776.63;10294027;28;20093;-73
2024/01/06 21:51:49;;;;;;;6.82;4.00;;;;;;;0.03;100.00;100766.19;10293573;28;20046;-73
2024/01/06 21:56:50;;;;;;;9.82;4.18;;;;;;;-0.08;100.00;100765.06;10291018;28;20045;-73
2024/01/06 22:01:51;;;;;;;7.95;3.75;;;;;;;-0.31;100.00;100771.59;10292374;28;20047;-73
2024/01/06 22:06:52;;;;;;;6.20;3.00;;;;;;;-0.39;100.00;100725.97;10292719;28;20045;-73
2024/01/06 22:11:54;;;;;;;10.45;4.32;;;;;;;-0.33;100.00;100726.50;10292518;28;20069;-73
2024/01/06 22:16:55;;;;;;;25.30;4.35;;;;;;;-0.53;100.00;100742.44;10292436;28;20043;-72
2024/01/06 22:21:56;;;;;;;7.47;3.50;;;;;;;-0.70;100.00;100730.34;10290511;28;20068;-73
2024/01/06 22:26:56;;;;;;;9.23;3.50;;;;;;;-0.97;100.00;100654.50;10292491;28;20047;-73
2024/01/06 22:31:57;;;;;;;8.35;3.67;;;;;;;-0.68;100.00;100699.78;10292392;28;20046;-73
2024/01/06 22:36:58;;;;;;;11.52;3.45;;;;;;;-0.54;100.00;100723.34;10292425;28;20035;-73
2024/01/06 22:41:59;;;;;;;6.60;3.28;;;;;;;-1.62;100.00;100573.81;10292551;28;20059;-72
2024/01/06 22:47:01;;;;;;;10.15;3.60;;;;;;;-0.74;100.00;100726.22;10291842;28;20055;-73
2024/01/06 22:52:02;;;;;;;10.10;3.55;;;;;;;-1.03;100.00;100676.53;10291307;28;20039;-73
2024/01/06 22:57:03;;;;;;;11.95;3.40;;;;;;;-0.79;100.00;100728.25;10291379;28;20495;-73
2024/01/06 23:02:04;;;;;;;8.50;3.20;;;;;;;-0.94;100.00;100683.00;10291054;28;20038;-72
2024/01/06 23:07:05;;;;;;;9.73;3.45;;;;;;;-0.60;100.00;100751.53;10290130;28;20579;-72